createdAt,value
2019-05-29T00:00:44.057Z,97275.17
2019-05-29T00:03:14.476Z,97275.05
2019-05-29T00:05:43.985Z,97278.11
2019-05-29T00:08:14.641Z,97279.64
2019-05-29T00:10:44.955Z,97285.48
2019-05-29T00:13:14.678Z,97282.54
2019-05-29T00:15:44.357Z,97284.41
2019-05-29T00:18:14.574Z,97284.55
2019-05-29T00:20:44.520Z,97279.44
2019-05-29T00:23:14.747Z,97294.23
2019-05-29T00:25:44.297Z,97291.95
2019-05-29T00:28:14.769Z,97290.96
2019-05-29T00:30:44.586Z,97293.88
2019-05-29T00:33:14.389Z,97300.06
2019-05-29T00:35:43.950Z,97294.16
2019-05-29T00:38:14.485Z,97298.03
2019-05-29T00:40:44.498Z,97297.42
2019-05-29T00:43:15.337Z,97292.59
2019-05-29T00:45:45.387Z,97300.42
2019-05-29T00:48:16.080Z,97300.45
2019-05-29T00:50:45.710Z,97303.84
2019-05-29T00:53:16.279Z,97308.91
2019-05-29T00:55:46.070Z,97308.80
2019-05-29T00:58:17.213Z,97306.59
2019-05-29T01:00:46.697Z,97300.78
2019-05-29T01:03:16.076Z,97299.93
2019-05-29T01:05:45.837Z,97302.07
2019-05-29T01:08:16.442Z,97307.91
2019-05-29T01:10:46.145Z,97310.56
2019-05-29T01:13:17.152Z,97317.91
2019-05-29T01:15:47.306Z,97315.78
2019-05-29T01:18:17.626Z,97319.20
2019-05-29T01:20:47.555Z,97325.95
2019-05-29T01:23:18.264Z,97335.41
2019-05-29T01:25:47.706Z,97331.41
2019-05-29T01:28:17.171Z,97328.63
2019-05-29T01:30:46.849Z,97325.23
2019-05-29T01:33:19.888Z,97327.53
2019-05-29T01:35:48.060Z,97335.20
2019-05-29T01:38:17.545Z,97349.84
2019-05-29T01:40:47.438Z,97345.80
2019-05-29T01:43:17.517Z,97350.22
2019-05-29T01:45:46.953Z,97351.30
2019-05-29T01:48:17.377Z,97353.95
2019-05-29T01:50:47.376Z,97360.60
2019-05-29T01:53:17.693Z,97360.00
2019-05-29T01:55:47.157Z,97361.90
2019-05-29T01:58:17.950Z,97361.05
2019-05-29T02:00:48.557Z,97365.42
2019-05-29T02:03:18.042Z,97367.00
2019-05-29T02:05:47.532Z,97361.22
2019-05-29T02:08:18.059Z,97364.17
2019-05-29T02:10:47.569Z,97359.39
2019-05-29T02:13:17.332Z,97369.19
2019-05-29T02:15:47.206Z,97366.14
2019-05-29T02:18:17.104Z,97363.98
2019-05-29T02:20:46.500Z,97366.72
2019-05-29T02:23:15.870Z,97370.36
2019-05-29T02:25:45.755Z,97372.90
2019-05-29T02:28:16.326Z,97377.90
2019-05-29T02:30:45.837Z,97374.44
2019-05-29T02:33:15.444Z,97384.10
2019-05-29T02:35:45.082Z,97386.21
2019-05-29T02:38:14.469Z,97387.42
2019-05-29T02:40:44.341Z,97386.41
2019-05-29T02:43:14.309Z,97391.29
2019-05-29T02:45:53.588Z,97392.11
2019-05-29T02:48:15.219Z,97391.09
2019-05-29T02:50:44.974Z,97390.81
2019-05-29T02:53:14.563Z,97389.59
2019-05-29T02:55:43.943Z,97397.05
2019-05-29T02:58:13.327Z,97401.66
2019-05-29T03:00:54.971Z,97407.27
2019-05-29T03:03:27.297Z,97415.23
2019-05-29T03:05:57.956Z,97417.95
2019-05-29T03:08:29.544Z,97419.58
2019-05-29T03:10:59.056Z,97420.03
2019-05-29T03:13:30.524Z,97420.45
2019-05-29T03:16:10.354Z,97424.78
2019-05-29T03:18:32.545Z,97419.86
2019-05-29T03:21:02.412Z,97425.06
2019-05-29T03:23:33.949Z,97435.44
2019-05-29T03:26:03.661Z,97439.25
2019-05-29T03:28:34.920Z,97433.95
2019-05-29T03:31:04.750Z,97438.97
2019-05-29T03:33:43.591Z,97439.61
2019-05-29T03:36:05.757Z,97449.30
2019-05-29T03:38:35.472Z,97441.69
2019-05-29T03:41:05.065Z,97443.07
2019-05-29T03:43:36.005Z,97448.10
2019-05-29T03:46:06.193Z,97451.55
2019-05-29T03:48:35.678Z,97457.38
2019-05-29T03:51:05.302Z,97454.68
2019-05-29T03:53:36.755Z,97449.93
2019-05-29T03:56:06.274Z,97453.98
2019-05-29T03:58:37.568Z,97451.39
2019-05-29T04:01:07.390Z,97449.07
2019-05-29T04:03:38.149Z,97452.18
2019-05-29T04:06:08.165Z,97455.59
2019-05-29T04:08:38.474Z,97454.97
2019-05-29T04:11:08.722Z,97446.13
2019-05-29T04:13:39.471Z,97446.87
2019-05-29T04:16:10.640Z,97453.91
2019-05-29T04:18:41.764Z,97452.23
2019-05-29T04:21:12.175Z,97453.88
2019-05-29T04:23:43.323Z,97457.16
2019-05-29T04:26:16.070Z,97464.52
2019-05-29T04:28:46.124Z,97466.58
2019-05-29T04:31:15.926Z,97466.27
2019-05-29T04:33:45.696Z,97470.92
2019-05-29T04:36:15.312Z,97478.02
2019-05-29T04:38:44.790Z,97479.83
2019-05-29T04:41:14.209Z,97489.45
2019-05-29T04:43:43.706Z,97499.54
2019-05-29T04:46:13.278Z,97501.38
2019-05-29T04:48:43.058Z,97507.33
2019-05-29T04:51:12.653Z,97508.69
2019-05-29T04:53:42.248Z,97507.38
2019-05-29T04:56:12.068Z,97512.00
2019-05-29T04:58:41.804Z,97507.15
2019-05-29T05:01:11.214Z,97506.90
2019-05-29T05:03:40.673Z,97506.68
2019-05-29T05:06:10.618Z,97514.17
2019-05-29T05:08:40.398Z,97514.91
2019-05-29T05:11:10.752Z,97517.35
2019-05-29T05:13:40.187Z,97520.72
2019-05-29T05:16:09.680Z,97511.64
2019-05-29T05:18:40.234Z,97515.27
2019-05-29T05:21:10.058Z,97522.28
2019-05-29T05:23:40.497Z,97518.28
2019-05-29T05:26:10.472Z,97519.75
2019-05-29T05:28:43.664Z,97521.08
2019-05-29T05:31:11.582Z,97524.48
2019-05-29T05:33:41.256Z,97516.47
2019-05-29T05:36:11.025Z,97519.36
2019-05-29T05:38:41.175Z,97520.81
2019-05-29T05:41:10.719Z,97524.06
2019-05-29T05:43:41.345Z,97517.84
2019-05-29T05:46:11.577Z,97517.67
2019-05-29T05:48:41.676Z,97526.74
2019-05-29T05:51:11.418Z,97522.52
2019-05-29T05:53:41.785Z,97525.70
2019-05-29T05:56:11.575Z,97532.83
2019-05-29T05:58:42.199Z,97526.77
2019-05-29T06:01:12.340Z,97523.46
2019-05-29T06:03:42.778Z,97537.03
2019-05-29T06:06:12.197Z,97543.36
2019-05-29T06:08:42.497Z,97547.72
2019-05-29T06:11:12.379Z,97540.45
2019-05-29T06:13:42.758Z,97536.50
2019-05-29T06:16:12.406Z,97543.18
2019-05-29T06:18:43.099Z,97544.97
2019-05-29T06:21:13.239Z,97547.34
2019-05-29T06:23:43.463Z,97543.25
2019-05-29T06:26:13.649Z,97546.51
2019-05-29T06:28:43.561Z,97542.77
2019-05-29T06:31:13.247Z,97546.70
2019-05-29T06:33:43.970Z,97554.27
2019-05-29T06:36:13.872Z,97552.94
2019-05-29T06:38:44.392Z,97556.45
2019-05-29T06:41:14.085Z,97562.19
2019-05-29T06:43:44.401Z,97559.70
2019-05-29T06:46:14.240Z,97557.59
2019-05-29T06:48:57.550Z,97551.33
2019-05-29T06:51:15.266Z,97552.70
2019-05-29T06:53:44.661Z,97548.83
2019-05-29T06:56:15.265Z,97545.67
2019-05-29T06:58:45.528Z,97549.69
2019-05-29T07:01:15.182Z,97545.80
2019-05-29T07:03:44.814Z,97550.33
2019-05-29T07:06:14.548Z,97549.83
2019-05-29T07:08:47.642Z,97554.27
2019-05-29T07:11:15.411Z,97556.73
2019-05-29T07:13:47.483Z,97559.97
2019-05-29T07:16:16.175Z,97551.98
2019-05-29T07:19:23.239Z,97558.12
2019-05-29T07:21:17.204Z,97561.52
2019-05-29T07:23:48.656Z,97553.11
2019-05-29T07:26:18.244Z,97552.45
2019-05-29T07:29:06.498Z,97551.07
2019-05-29T07:31:19.315Z,97545.84
2019-05-29T07:33:49.089Z,97540.93
2019-05-29T07:36:18.469Z,97543.41
2019-05-29T07:38:57.647Z,97543.25
2019-05-29T07:41:19.369Z,97541.60
2019-05-29T07:43:48.907Z,97543.65
2019-05-29T07:46:18.600Z,97542.70
2019-05-29T07:48:50.197Z,97542.53
2019-05-29T07:51:19.785Z,97536.30
2019-05-29T07:53:49.566Z,97542.77
2019-05-29T07:56:22.870Z,97544.08
2019-05-29T07:59:01.766Z,97539.00
2019-05-29T08:01:21.860Z,97538.05
2019-05-29T08:03:51.450Z,97536.81
2019-05-29T08:06:21.291Z,97537.05
2019-05-29T08:08:50.903Z,97536.09
2019-05-29T08:11:20.344Z,97535.62
2019-05-29T08:13:50.110Z,97539.23
2019-05-29T08:16:19.740Z,97538.42
2019-05-29T08:18:52.688Z,97537.08
2019-05-29T08:21:20.646Z,97538.14
2019-05-29T08:23:50.769Z,97527.09
2019-05-29T08:26:20.944Z,97534.31
2019-05-29T08:28:51.196Z,97528.67
2019-05-29T08:31:20.935Z,97532.95
2019-05-29T08:33:51.306Z,97528.64
2019-05-29T08:36:21.575Z,97529.17
2019-05-29T08:38:51.800Z,97528.57
2019-05-29T08:41:21.876Z,97529.95
2019-05-29T08:43:54.705Z,97523.55
2019-05-29T08:46:24.281Z,97523.55
2019-05-29T08:48:53.715Z,97525.23
2019-05-29T08:51:23.248Z,97526.25
2019-05-29T08:53:54.669Z,97523.98
2019-05-29T08:56:24.256Z,97517.59
2019-05-29T08:58:53.750Z,97520.31
2019-05-29T09:01:23.259Z,97520.02
2019-05-29T09:03:53.464Z,97522.45
2019-05-29T09:06:23.015Z,97522.81
2019-05-29T09:08:54.723Z,97526.72
2019-05-29T09:11:23.966Z,97530.63
2019-05-29T09:13:53.675Z,97531.83
2019-05-29T09:16:23.487Z,97527.90
2019-05-29T09:18:53.385Z,97527.73
2019-05-29T09:21:26.514Z,97526.94
2019-05-29T09:23:54.218Z,97528.64
2019-05-29T09:26:25.964Z,97529.16
2019-05-29T09:28:55.336Z,97525.06
2019-05-29T09:31:24.877Z,97522.82
2019-05-29T09:33:54.383Z,97528.63
2019-05-29T09:36:24.736Z,97528.63
2019-05-29T09:38:54.903Z,97526.52
2019-05-29T09:41:25.613Z,97519.55
2019-05-29T09:43:59.699Z,97519.02
2019-05-29T09:46:26.854Z,97524.45
2019-05-29T09:48:56.329Z,97510.80
2019-05-29T09:51:26.936Z,97508.66
2019-05-29T09:53:58.230Z,97506.86
2019-05-29T09:56:28.213Z,97509.90
2019-05-29T09:58:59.468Z,97514.29
2019-05-29T10:01:29.648Z,97508.61
2019-05-29T10:04:01.902Z,97514.08
2019-05-29T10:06:30.732Z,97517.44
2019-05-29T10:09:01.630Z,97513.23
2019-05-29T10:11:31.762Z,97509.32
2019-05-29T10:14:02.758Z,97508.91
2019-05-29T10:16:32.513Z,97517.38
2019-05-29T10:19:03.236Z,97506.39
2019-05-29T10:21:40.060Z,97511.27
2019-05-29T10:24:06.042Z,97503.95
2019-05-29T10:26:35.868Z,97506.41
2019-05-29T10:29:09.157Z,97510.50
2019-05-29T10:31:37.086Z,97512.62
2019-05-29T10:34:06.797Z,97502.39
2019-05-29T10:36:36.350Z,97494.22
2019-05-29T10:39:08.613Z,97495.08
2019-05-29T10:41:38.532Z,97496.23
2019-05-29T10:44:12.442Z,97492.59
2019-05-29T10:46:39.791Z,97483.68
2019-05-29T10:49:09.403Z,97487.17
2019-05-29T10:51:54.630Z,97481.27
2019-05-29T10:54:10.890Z,97475.91
2019-05-29T10:56:40.371Z,97480.30
2019-05-29T10:59:09.758Z,97480.72
2019-05-29T11:01:39.357Z,97480.45
2019-05-29T11:04:09.003Z,97471.73
2019-05-29T11:06:40.914Z,97478.66
2019-05-29T11:09:09.853Z,97476.83
2019-05-29T11:11:39.709Z,97475.36
2019-05-29T11:14:09.318Z,97466.30
2019-05-29T11:16:39.903Z,97460.38
2019-05-29T11:19:09.850Z,97464.67
2019-05-29T11:21:39.505Z,97463.08
2019-05-29T11:24:08.908Z,97464.04
2019-05-29T11:26:38.739Z,97456.28
2019-05-29T11:29:08.841Z,97456.64
2019-05-29T11:31:38.442Z,97455.33
2019-05-29T11:34:08.151Z,97450.48
2019-05-29T11:36:37.994Z,97448.09
2019-05-29T11:39:09.132Z,97445.97
2019-05-29T11:41:38.724Z,97445.27
2019-05-29T11:44:08.114Z,97435.80
2019-05-29T11:46:37.852Z,97440.08
2019-05-29T11:49:07.471Z,97433.75
2019-05-29T11:51:37.260Z,97437.90
2019-05-29T11:54:06.854Z,97440.92
2019-05-29T11:56:36.817Z,97438.33
2019-05-29T11:59:06.579Z,97429.04
2019-05-29T12:01:49.789Z,97421.61
2019-05-29T12:04:24.333Z,97426.66
2019-05-29T12:06:39.181Z,97433.47
2019-05-29T12:09:10.403Z,97428.30
2019-05-29T12:11:39.945Z,97424.36
2019-05-29T12:14:09.936Z,97421.50
2019-05-29T12:16:39.656Z,97419.51
2019-05-29T12:19:09.442Z,97409.87
2019-05-29T12:21:42.477Z,97409.72
2019-05-29T12:24:10.486Z,97404.53
2019-05-29T12:26:40.033Z,97395.26
2019-05-29T12:29:11.872Z,97406.66
2019-05-29T12:31:41.157Z,97404.03
2019-05-29T12:34:18.935Z,97403.30
2019-05-29T12:36:42.038Z,97417.10
2019-05-29T12:39:11.774Z,97415.97
2019-05-29T12:41:41.301Z,97410.97
2019-05-29T12:44:10.852Z,97404.73
2019-05-29T12:46:40.382Z,97403.88
2019-05-29T12:49:10.145Z,97400.57
2019-05-29T12:51:39.759Z,97394.54
2019-05-29T12:54:09.391Z,97393.87
2019-05-29T12:56:39.115Z,97388.67
2019-05-29T12:59:09.049Z,97389.13
2019-05-29T13:01:38.428Z,97386.65
2019-05-29T13:04:08.010Z,97386.32
2019-05-29T13:06:37.840Z,97383.74
2019-05-29T13:09:08.997Z,97385.21
2019-05-29T13:11:38.552Z,97382.67
2019-05-29T13:14:08.274Z,97380.22
2019-05-29T13:16:37.758Z,97377.91
2019-05-29T13:19:07.385Z,97377.77
2019-05-29T13:21:37.163Z,97370.36
2019-05-29T13:24:11.318Z,97364.31
2019-05-29T13:26:38.363Z,97363.28
2019-05-29T13:29:07.772Z,97370.23
2019-05-29T13:31:37.534Z,97361.48
2019-05-29T13:34:07.361Z,97353.30
2019-05-29T13:36:36.943Z,97359.22
2019-05-29T13:39:08.572Z,97356.37
2019-05-29T13:41:38.266Z,97350.66
2019-05-29T13:44:07.994Z,97353.44
2019-05-29T13:46:37.386Z,97358.42
2019-05-29T13:49:07.272Z,97353.84
2019-05-29T13:51:37.259Z,97363.98
2019-05-29T13:54:13.454Z,97350.06
2019-05-29T13:56:38.258Z,97352.19
2019-05-29T13:59:08.397Z,97349.90
2019-05-29T14:01:38.326Z,97341.12
2019-05-29T14:04:08.607Z,97348.59
2019-05-29T14:06:38.528Z,97344.46
2019-05-29T14:09:09.861Z,97344.91
2019-05-29T14:11:39.526Z,97343.72
2019-05-29T14:14:11.347Z,97340.22
2019-05-29T14:16:40.663Z,97339.44
2019-05-29T14:19:10.479Z,97342.68
2019-05-29T14:21:39.883Z,97346.42
2019-05-29T14:24:26.217Z,97348.03
2019-05-29T14:26:40.821Z,97343.41
2019-05-29T14:29:11.747Z,97341.94
2019-05-29T14:31:41.433Z,97334.50
2019-05-29T14:34:11.150Z,97336.98
2019-05-29T14:36:41.003Z,97342.88
2019-05-29T14:39:11.913Z,97338.15
2019-05-29T14:41:41.791Z,97332.08
2019-05-29T14:44:12.054Z,97339.38
2019-05-29T14:46:41.432Z,97334.83
2019-05-29T14:49:13.026Z,97341.45
2019-05-29T14:51:42.505Z,97341.97
2019-05-29T14:54:13.065Z,97342.86
2019-05-29T14:56:42.888Z,97333.97
2019-05-29T14:59:13.681Z,97339.11
2019-05-29T15:01:43.302Z,97333.13
2019-05-29T15:04:14.499Z,97328.38
2019-05-29T15:06:44.116Z,97331.74
2019-05-29T15:09:13.873Z,97327.66
2019-05-29T15:11:43.859Z,97323.75
2019-05-29T15:14:14.479Z,97334.41
2019-05-29T15:16:44.003Z,97336.07
2019-05-29T15:19:15.118Z,97332.59
2019-05-29T15:21:44.766Z,97336.19
2019-05-29T15:24:14.157Z,97341.64
2019-05-29T15:26:44.518Z,97341.73
2019-05-29T15:29:16.365Z,97344.89
2019-05-29T15:31:46.871Z,97342.95
2019-05-29T15:34:16.745Z,97337.44
2019-05-29T15:36:46.865Z,97334.42
2019-05-29T15:39:16.949Z,97337.22
2019-05-29T15:41:46.365Z,97343.04
2019-05-29T15:44:17.110Z,97344.39
2019-05-29T15:46:46.909Z,97336.28
2019-05-29T15:49:17.265Z,97341.72
2019-05-29T15:51:47.021Z,97341.81
2019-05-29T15:54:17.522Z,97351.28
2019-05-29T15:56:47.119Z,97354.55
2019-05-29T15:59:18.920Z,97356.73
2019-05-29T16:01:47.943Z,97354.25
2019-05-29T16:04:18.032Z,97347.53
2019-05-29T16:06:47.892Z,97347.53
2019-05-29T16:09:18.679Z,97350.09
2019-05-29T16:11:48.319Z,97352.27
2019-05-29T16:14:19.030Z,97352.27
2019-05-29T16:16:48.790Z,97364.06
2019-05-29T16:19:18.484Z,97368.42
2019-05-29T16:21:48.066Z,97372.88
2019-05-29T16:24:17.467Z,97372.52
2019-05-29T16:26:47.486Z,97379.59
2019-05-29T16:29:18.208Z,97384.23
2019-05-29T16:31:48.345Z,97384.23
2019-05-29T16:34:18.928Z,97390.23
2019-05-29T16:36:49.055Z,97397.34
2019-05-29T16:39:19.699Z,97394.86
2019-05-29T16:41:49.877Z,97395.05
2019-05-29T16:44:24.282Z,97395.76
2019-05-29T16:46:50.984Z,97397.41
2019-05-29T16:49:21.285Z,97404.83
2019-05-29T16:51:51.060Z,97405.48
2019-05-29T16:54:21.098Z,97406.83
2019-05-29T16:56:50.617Z,97415.91
2019-05-29T16:59:21.366Z,97424.33
2019-05-29T17:01:51.218Z,97427.36
2019-05-29T17:04:21.709Z,97437.12
2019-05-29T17:06:51.538Z,97436.28
2019-05-29T17:09:22.231Z,97436.45
2019-05-29T17:11:52.197Z,97434.78
2019-05-29T17:14:22.812Z,97432.59
2019-05-29T17:16:52.404Z,97431.75
2019-05-29T17:19:23.065Z,97427.37
2019-05-29T17:21:52.560Z,97425.16
2019-05-29T17:24:23.058Z,97425.78
2019-05-29T17:26:52.563Z,97429.66
2019-05-29T17:29:22.887Z,97433.55
2019-05-29T17:31:52.513Z,97435.34
2019-05-29T17:34:23.206Z,97428.56
2019-05-29T17:36:52.787Z,97429.05
2019-05-29T17:39:23.057Z,97431.91
2019-05-29T17:41:52.788Z,97436.61
2019-05-29T17:44:23.560Z,97447.37
2019-05-29T17:46:53.459Z,97454.63
2019-05-29T17:49:32.771Z,97471.41
2019-05-29T17:51:54.398Z,97476.07
2019-05-29T17:54:24.017Z,97470.19
2019-05-29T17:56:54.201Z,97471.49
2019-05-29T17:59:24.148Z,97477.30
2019-05-29T18:01:54.156Z,97482.71
2019-05-29T18:04:24.915Z,97473.39
2019-05-29T18:06:56.562Z,97479.59
2019-05-29T18:09:27.954Z,97474.10
2019-05-29T18:11:57.604Z,97481.03
2019-05-29T18:14:27.603Z,97474.33
2019-05-29T18:16:57.277Z,97489.27
2019-05-29T18:19:28.180Z,97482.86
2019-05-29T18:21:58.120Z,97486.73
2019-05-29T18:24:28.331Z,97486.28
2019-05-29T18:26:59.125Z,97482.31
2019-05-29T18:29:29.738Z,97481.70
2019-05-29T18:31:59.715Z,97484.47
2019-05-29T18:34:29.781Z,97488.91
2019-05-29T18:36:59.303Z,97491.27
2019-05-29T18:39:28.871Z,97489.95
2019-05-29T18:41:58.647Z,97495.32
2019-05-29T18:44:28.918Z,97495.69
2019-05-29T18:46:58.735Z,97499.86
2019-05-29T18:49:28.676Z,97506.76
2019-05-29T18:52:00.441Z,97512.52
2019-05-29T18:54:30.266Z,97512.42
2019-05-29T18:57:14.769Z,97520.77
2019-05-29T18:59:31.745Z,97524.63
2019-05-29T19:02:01.451Z,97534.32
2019-05-29T19:04:31.911Z,97540.93
2019-05-29T19:07:01.524Z,97543.95
2019-05-29T19:09:31.987Z,97550.25
2019-05-29T19:12:01.597Z,97577.45
2019-05-29T19:14:32.389Z,97571.46
2019-05-29T19:17:02.060Z,97579.34
2019-05-29T19:19:32.545Z,97577.50
2019-05-29T19:22:02.352Z,97581.51
2019-05-29T19:24:32.826Z,97584.48
2019-05-29T19:27:02.634Z,97590.18
2019-05-29T19:29:33.360Z,97601.52
2019-05-29T19:32:02.888Z,97610.95
2019-05-29T19:34:33.532Z,97617.08
2019-05-29T19:37:03.254Z,97618.70
2019-05-29T19:39:34.180Z,97613.78
2019-05-29T19:42:04.190Z,97622.10
2019-05-29T19:44:34.580Z,97624.92
2019-05-29T19:47:04.135Z,97623.26
2019-05-29T19:49:35.191Z,97617.70
2019-05-29T19:52:04.818Z,97630.96
2019-05-29T19:54:34.275Z,97626.03
2019-05-29T19:57:04.048Z,97632.30
2019-05-29T19:59:34.053Z,97636.16
2019-05-29T20:02:03.930Z,97636.06
2019-05-29T20:04:34.648Z,97642.28
2019-05-29T20:07:04.600Z,97644.72
2019-05-29T20:09:35.375Z,97649.22
2019-05-29T20:12:05.633Z,97650.27
2019-05-29T20:14:35.879Z,97656.13
2019-05-29T20:17:05.448Z,97654.70
2019-05-29T20:19:38.821Z,97656.42
2019-05-29T20:22:06.414Z,97659.62
2019-05-29T20:24:36.907Z,97663.09
2019-05-29T20:27:06.428Z,97661.58
2019-05-29T20:29:36.440Z,97668.58
2019-05-29T20:32:07.563Z,97676.34
2019-05-29T20:34:37.222Z,97677.40
2019-05-29T20:37:06.614Z,97674.24
2019-05-29T20:39:36.366Z,97676.20
2019-05-29T20:42:06.027Z,97670.98
2019-05-29T20:44:36.664Z,97668.55
2019-05-29T20:47:06.894Z,97668.79
2019-05-29T20:49:37.999Z,97673.00
2019-05-29T20:52:07.607Z,97681.52
2019-05-29T20:54:37.697Z,97684.50
2019-05-29T20:57:13.841Z,97688.52
2019-05-29T20:59:43.619Z,97695.61
2019-05-29T21:02:13.202Z,97685.73
2019-05-29T21:04:42.950Z,97686.92
2019-05-29T21:07:12.908Z,97696.39
2019-05-29T21:09:43.354Z,97696.12
2019-05-29T21:12:12.969Z,97703.00
2019-05-29T21:14:44.580Z,97709.20
2019-05-29T21:17:14.071Z,97714.64
2019-05-29T21:19:44.750Z,97715.13
2019-05-29T21:22:14.505Z,97717.47
2019-05-29T21:24:49.514Z,97719.31
2019-05-29T21:27:15.430Z,97722.89
2019-05-29T21:29:45.520Z,97721.23
2019-05-29T21:32:15.020Z,97724.02
2019-05-29T21:34:44.411Z,97724.63
2019-05-29T21:37:14.212Z,97723.80
2019-05-29T21:39:44.551Z,97725.29
2019-05-29T21:42:14.198Z,97730.13
2019-05-29T21:44:44.908Z,97728.44
2019-05-29T21:47:14.683Z,97733.05
2019-05-29T21:49:45.259Z,97730.50
2019-05-29T21:52:14.666Z,97726.97
2019-05-29T21:54:44.144Z,97730.37
2019-05-29T21:57:13.939Z,97730.72
2019-05-29T21:59:43.814Z,97732.58
2019-05-29T22:02:13.706Z,97731.40
2019-05-29T22:04:44.599Z,97735.81
2019-05-29T22:07:14.142Z,97736.00
2019-05-29T22:09:43.646Z,97736.26
2019-05-29T22:12:13.411Z,97737.87
2019-05-29T22:14:43.101Z,97739.00
2019-05-29T22:17:12.661Z,97734.87
2019-05-29T22:19:42.333Z,97737.55
2019-05-29T22:22:12.121Z,97739.14
2019-05-29T22:24:42.233Z,97735.86
2019-05-29T22:27:11.674Z,97739.02
2019-05-29T22:29:41.279Z,97741.33
2019-05-29T22:32:10.770Z,97741.33
2019-05-29T22:34:40.685Z,97742.89
2019-05-29T22:37:10.219Z,97740.95
2019-05-29T22:39:39.781Z,97744.09
2019-05-29T22:42:09.338Z,97744.35
2019-05-29T22:44:38.841Z,97747.51
2019-05-29T22:47:08.319Z,97753.61
2019-05-29T22:49:37.974Z,97751.42
2019-05-29T22:52:07.560Z,97753.23
2019-05-29T22:54:37.208Z,97753.10
2019-05-29T22:57:06.668Z,97751.64
2019-05-29T22:59:36.396Z,97754.05
2019-05-29T23:02:05.884Z,97758.57
2019-05-29T23:04:35.414Z,97753.10
2019-05-29T23:07:05.213Z,97756.73
2019-05-29T23:09:34.917Z,97754.06
2019-05-29T23:12:04.473Z,97752.98
2019-05-29T23:14:34.126Z,97756.28
2019-05-29T23:17:03.933Z,97754.53
2019-05-29T23:19:33.325Z,97747.77
2019-05-29T23:22:03.283Z,97752.59
2019-05-29T23:24:33.080Z,97750.44
2019-05-29T23:27:03.013Z,97747.16
2019-05-29T23:29:47.893Z,97747.51
2019-05-29T23:32:04.083Z,97747.89
2019-05-29T23:34:33.770Z,97750.44
2019-05-29T23:37:04.208Z,97753.36
2019-05-29T23:39:33.592Z,97754.44
2019-05-29T23:42:03.652Z,97754.09
2019-05-29T23:44:33.449Z,97757.37
2019-05-29T23:49:31.359Z,97756.47
2019-05-29T23:52:02.884Z,97756.38
2019-05-29T23:54:32.547Z,97763.05
2019-05-29T23:57:02.129Z,97764.14
2019-05-29T23:59:31.862Z,97760.13
